Time;durP1;ratioP1;P1;durP2;ratioP2;P2;SDS_P1;SDS_P2;PMS_P1;PMS_P2;Temp;Humidity;BMP_temperature;BMP_pressure;BME280_temperature;BME280_humidity;BME280_pressure;Samples;Min_cycle;Max_cycle;Signal;HPM_P1;HPM_P2
2022/06/22 00:01:03;;;;;;;353.08;179.32;;;;;;;;;;4984703;28;20188;-52
2022/06/22 00:03:29;;;;;;;368.57;186.90;;;;;;;;;;4982282;28;20215;-52
2022/06/22 00:05:55;;;;;;;407.53;204.43;;;;;;;;;;4977248;28;20242;-53
2022/06/22 00:08:25;;;;;;;423.00;204.70;;;;;;;;;;4974566;28;20255;-53
2022/06/22 00:10:55;;;;;;;389.90;194.57;;;;;;;;;;4960524;28;20300;-52
2022/06/22 00:13:23;;;;;;;298.95;156.10;;;;;;;;;;4990073;28;20541;-52
2022/06/22 00:15:53;;;;;;;348.48;178.38;;;;;;;;;;4984225;28;20311;-52
2022/06/22 00:18:28;;;;;;;284.85;149.32;;;;;;;;;;4991015;28;20292;-52
2022/06/22 00:20:56;;;;;;;317.42;163.82;;;;;;;;;;4987026;28;20223;-52
2022/06/22 00:23:31;;;;;;;298.13;156.80;;;;;;;;;;4984719;28;20233;-52
2022/06/22 00:26:17;;;;;;;371.48;185.10;;;;;;;;;;4981913;28;20926;-53
2022/06/22 00:28:59;;;;;;;260.48;141.43;;;;;;;;;;4988110;28;20229;-53
2022/06/22 00:31:45;;;;;;;368.02;181.43;;;;;;;;;;4988129;28;20184;-52
2022/06/22 00:34:11;;;;;;;275.20;145.45;;;;;;;;;;4990874;28;20822;-52
2022/06/22 00:36:40;;;;;;;300.37;157.40;;;;;;;;;;4991318;28;20577;-52
2022/06/22 00:39:32;;;;;;;329.98;166.85;;;;;;;;;;4986812;28;20231;-52
2022/06/22 00:41:58;;;;;;;297.85;154.80;;;;;;;;;;4990195;28;20229;-53
2022/06/22 00:44:29;;;;;;;306.90;156.50;;;;;;;;;;4992182;28;20236;-52
2022/06/22 00:47:05;;;;;;;314.70;160.93;;;;;;;;;;4990286;28;20214;-52
2022/06/22 00:49:31;;;;;;;267.33;142.07;;;;;;;;;;4992428;28;20204;-52
2022/06/22 00:52:01;;;;;;;257.03;141.80;;;;;;;;;;4985341;28;20181;-52
2022/06/22 00:54:29;;;;;;;282.70;149.67;;;;;;;;;;4990624;28;20654;-52
2022/06/22 00:57:05;;;;;;;279.63;145.37;;;;;;;;;;4990754;28;20221;-52
2022/06/22 00:59:58;;;;;;;270.50;142.30;;;;;;;;;;4992623;28;20217;-53
2022/06/22 01:02:26;;;;;;;280.27;144.67;;;;;;;;;;4986811;28;20266;-53
2022/06/22 01:04:52;;;;;;;292.20;150.47;;;;;;;;;;4984373;28;20227;-52
2022/06/22 01:07:23;;;;;;;267.80;142.50;;;;;;;;;;4983537;28;20185;-52
2022/06/22 01:09:57;;;;;;;317.88;160.73;;;;;;;;;;4980863;28;20217;-52
2022/06/22 01:12:45;;;;;;;283.80;148.17;;;;;;;;;;4986233;28;20235;-52
2022/06/22 01:15:22;;;;;;;287.23;147.60;;;;;;;;;;4982954;28;20253;-53
2022/06/22 01:17:53;;;;;;;255.63;135.83;;;;;;;;;;4991457;28;20240;-52
2022/06/22 01:20:26;;;;;;;304.87;152.67;;;;;;;;;;4988486;28;20231;-52
2022/06/22 01:22:52;;;;;;;331.03;161.27;;;;;;;;;;4983180;28;20259;-53
2022/06/22 01:25:27;;;;;;;295.87;151.60;;;;;;;;;;4984740;28;21790;-52
2022/06/22 01:27:53;;;;;;;242.50;134.47;;;;;;;;;;4986829;28;20220;-52
2022/06/22 01:30:22;;;;;;;191.68;118.28;;;;;;;;;;4992690;28;20224;-52
2022/06/22 01:32:48;;;;;;;337.50;163.93;;;;;;;;;;4987312;28;20227;-52
2022/06/22 01:35:25;;;;;;;306.60;153.48;;;;;;;;;;4982025;28;20229;-52
2022/06/22 01:37:51;;;;;;;258.17;139.13;;;;;;;;;;4983044;28;20283;-52
2022/06/22 01:40:19;;;;;;;247.27;136.37;;;;;;;;;;4983238;28;20630;-52
2022/06/22 01:42:55;;;;;;;246.70;139.03;;;;;;;;;;4988849;28;20224;-52
2022/06/22 01:45:37;;;;;;;221.07;125.32;;;;;;;;;;4988465;28;20601;-52
2022/06/22 01:48:22;;;;;;;281.20;147.37;;;;;;;;;;4990556;28;20212;-52
2022/06/22 01:50:50;;;;;;;294.27;153.40;;;;;;;;;;4984170;28;20236;-53
2022/06/22 01:53:19;;;;;;;295.50;152.07;;;;;;;;;;4984813;28;20313;-52
2022/06/22 01:56:00;;;;;;;181.07;114.27;;;;;;;;;;4992623;28;20231;-52
2022/06/22 01:58:44;;;;;;;234.13;132.63;;;;;;;;;;4987894;28;20995;-52
2022/06/22 02:01:15;;;;;;;252.10;135.77;;;;;;;;;;4992539;28;20185;-52
2022/06/22 02:03:44;;;;;;;226.77;129.50;;;;;;;;;;4984133;28;20240;-52
2022/06/22 02:09:02;;;;;;;291.80;149.23;;;;;;;;;;4980833;28;20278;-52
2022/06/22 02:11:29;;;;;;;231.10;129.10;;;;;;;;;;4985668;28;20220;-52
2022/06/22 02:14:03;;;;;;;243.60;134.03;;;;;;;;;;4983825;28;20221;-52
2022/06/22 02:16:41;;;;;;;167.80;112.97;;;;;;;;;;4987038;28;20186;-49
2022/06/22 02:19:10;;;;;;;227.23;126.43;;;;;;;;;;4987488;28;20650;-49
2022/06/22 02:21:38;;;;;;;159.93;105.80;;;;;;;;;;4991257;28;20239;-49
2022/06/22 02:24:07;;;;;;;236.20;127.37;;;;;;;;;;4983820;28;20217;-50
2022/06/22 02:26:36;;;;;;;187.77;115.03;;;;;;;;;;4987213;28;20304;-49
2022/06/22 02:29:03;;;;;;;226.77;126.27;;;;;;;;;;4987611;28;20755;-49
2022/06/22 02:31:29;;;;;;;166.77;110.10;;;;;;;;;;4993037;28;20189;-49
2022/06/22 02:33:56;;;;;;;130.33;97.63;;;;;;;;;;4995655;28;20706;-49
2022/06/22 02:36:23;;;;;;;197.77;118.77;;;;;;;;;;4989699;28;20357;-49
2022/06/22 02:38:50;;;;;;;177.20;112.80;;;;;;;;;;4990456;28;20217;-50
2022/06/22 02:46:48;;;;;;;223.60;126.77;;;;;;;;;;4981315;28;20228;-49
2022/06/22 02:49:21;;;;;;;214.33;126.10;;;;;;;;;;4987144;28;20205;-49
2022/06/22 02:51:48;;;;;;;189.75;114.82;;;;;;;;;;4986154;28;20220;-49
2022/06/22 02:54:23;;;;;;;274.13;139.90;;;;;;;;;;4984871;28;20216;-49
2022/06/22 02:56:53;;;;;;;208.87;117.17;;;;;;;;;;4992029;28;20215;-49
2022/06/22 02:59:19;;;;;;;211.47;117.73;;;;;;;;;;4990039;28;20709;-49
2022/06/22 03:01:46;;;;;;;186.13;115.10;;;;;;;;;;4978401;28;20765;-49
2022/06/22 03:04:13;;;;;;;211.80;126.07;;;;;;;;;;4987485;28;20263;-49
2022/06/22 03:06:42;;;;;;;177.20;116.83;;;;;;;;;;4986142;28;20298;-49
2022/06/22 03:09:09;;;;;;;300.50;152.60;;;;;;;;;;4977432;28;20580;-49
2022/06/22 03:11:40;;;;;;;198.60;118.63;;;;;;;;;;4983898;28;20224;-49
2022/06/22 03:14:17;;;;;;;204.40;122.83;;;;;;;;;;4984905;28;20324;-49
2022/06/22 03:16:44;;;;;;;144.43;105.47;;;;;;;;;;4990340;28;20223;-50
2022/06/22 03:19:13;;;;;;;203.88;126.13;;;;;;;;;;4989460;28;20340;-49
2022/06/22 03:21:40;;;;;;;124.67;100.97;;;;;;;;;;4987263;28;20212;-50
2022/06/22 03:24:21;;;;;;;189.60;118.67;;;;;;;;;;4979847;28;20252;-49
2022/06/22 03:26:50;;;;;;;173.33;113.37;;;;;;;;;;4984074;28;20205;-49
2022/06/22 03:29:33;;;;;;;236.13;133.03;;;;;;;;;;4985587;28;20601;-50
2022/06/22 03:32:02;;;;;;;203.07;124.73;;;;;;;;;;4983764;28;20213;-49
2022/06/22 03:34:34;;;;;;;187.97;121.37;;;;;;;;;;4984503;28;20625;-49
2022/06/22 03:37:23;;;;;;;144.07;106.43;;;;;;;;;;4990019;28;20543;-49
2022/06/22 03:39:51;;;;;;;158.97;111.93;;;;;;;;;;4974920;28;20407;-50
2022/06/22 03:42:22;;;;;;;246.73;137.50;;;;;;;;;;4985597;28;20267;-49
2022/06/22 03:44:54;;;;;;;209.50;128.03;;;;;;;;;;4981120;28;20589;-50
2022/06/22 03:47:25;;;;;;;202.03;124.20;;;;;;;;;;4984848;28;20232;-50
2022/06/22 03:49:56;;;;;;;223.73;131.87;;;;;;;;;;4985143;28;20565;-50
2022/06/22 03:52:26;;;;;;;232.57;133.37;;;;;;;;;;4987446;28;20188;-50
2022/06/22 03:54:56;;;;;;;209.10;127.50;;;;;;;;;;4990606;28;20732;-50
2022/06/22 03:57:24;;;;;;;184.63;118.63;;;;;;;;;;4987527;28;20260;-49
2022/06/22 03:59:50;;;;;;;188.40;121.20;;;;;;;;;;4990073;28;20303;-51
2022/06/22 04:02:20;;;;;;;265.47;144.17;;;;;;;;;;4991880;28;20691;-49
2022/06/22 04:04:50;;;;;;;187.47;123.00;;;;;;;;;;4991946;28;20657;-49
2022/06/22 04:07:17;;;;;;;263.95;146.68;;;;;;;;;;4979788;28;20193;-50
2022/06/22 04:09:48;;;;;;;273.00;149.18;;;;;;;;;;4979726;28;20412;-50
2022/06/22 04:12:17;;;;;;;315.33;165.02;;;;;;;;;;4981233;28;20232;-49
2022/06/22 04:14:53;;;;;;;233.10;134.30;;;;;;;;;;4982688;28;22753;-50
2022/06/22 04:17:27;;;;;;;250.82;136.43;;;;;;;;;;4985058;28;20240;-50
2022/06/22 04:20:16;;;;;;;153.40;107.43;;;;;;;;;;4986498;28;20713;-50
2022/06/22 04:22:43;;;;;;;221.95;127.28;;;;;;;;;;4975907;28;20216;-50
2022/06/22 04:25:13;;;;;;;230.75;130.15;;;;;;;;;;4982772;28;20205;-50
2022/06/22 04:27:41;;;;;;;194.80;123.00;;;;;;;;;;4983161;28;20251;-49
2022/06/22 04:30:16;;;;;;;302.93;157.20;;;;;;;;;;4976709;28;20217;-50
2022/06/22 04:32:57;;;;;;;239.75;136.18;;;;;;;;;;4990500;28;20654;-50
2022/06/22 04:35:44;;;;;;;233.77;131.63;;;;;;;;;;4971462;28;20680;-49
2022/06/22 04:38:17;;;;;;;247.93;138.93;;;;;;;;;;4984767;28;20225;-50
2022/06/22 04:40:43;;;;;;;298.40;157.00;;;;;;;;;;4981706;28;20232;-50
2022/06/22 04:43:09;;;;;;;276.52;149.05;;;;;;;;;;4979851;28;20182;-50
2022/06/22 04:45:39;;;;;;;179.07;116.03;;;;;;;;;;4986022;28;20227;-49
2022/06/22 04:48:26;;;;;;;259.33;141.07;;;;;;;;;;4981362;28;20224;-50
2022/06/22 04:50:57;;;;;;;281.53;148.90;;;;;;;;;;4984754;28;20216;-50
2022/06/22 04:53:31;;;;;;;281.33;151.03;;;;;;;;;;4962634;28;20576;-50
2022/06/22 04:56:00;;;;;;;172.27;113.10;;;;;;;;;;4987945;28;20232;-50
2022/06/22 04:58:35;;;;;;;221.90;131.98;;;;;;;;;;4990366;28;20223;-50
2022/06/22 05:01:01;;;;;;;214.90;130.18;;;;;;;;;;4986412;28;20473;-50
2022/06/22 05:03:28;;;;;;;208.10;125.23;;;;;;;;;;4993510;28;20224;-50
2022/06/22 05:05:56;;;;;;;264.20;143.48;;;;;;;;;;4985611;28;20545;-50
2022/06/22 05:08:31;;;;;;;320.83;170.70;;;;;;;;;;4991418;28;20231;-50
2022/06/22 05:11:00;;;;;;;217.93;129.73;;;;;;;;;;4988880;28;20224;-49
2022/06/22 05:13:34;;;;;;;195.48;120.95;;;;;;;;;;4987354;28;20296;-49
2022/06/22 05:16:01;;;;;;;188.40;120.38;;;;;;;;;;4985233;28;20229;-49
2022/06/22 05:18:30;;;;;;;263.90;143.52;;;;;;;;;;4983578;28;20232;-49
2022/06/22 05:20:56;;;;;;;245.47;139.70;;;;;;;;;;4996246;28;20216;-49
2022/06/22 05:23:24;;;;;;;280.50;157.02;;;;;;;;;;4990136;28;20228;-50
2022/06/22 05:25:52;;;;;;;189.85;123.25;;;;;;;;;;4990777;28;20236;-50
2022/06/22 05:28:41;;;;;;;262.58;148.05;;;;;;;;;;4989611;28;20241;-51
2022/06/22 05:31:13;;;;;;;213.88;128.70;;;;;;;;;;4980232;28;20625;-51
2022/06/22 05:33:42;;;;;;;237.70;135.18;;;;;;;;;;4996926;28;20217;-52
2022/06/22 05:36:10;;;;;;;303.63;152.93;;;;;;;;;;4984488;28;20230;-51
2022/06/22 05:38:38;;;;;;;321.73;163.07;;;;;;;;;;4984762;28;20239;-51
2022/06/22 05:41:08;;;;;;;409.47;187.97;;;;;;;;;;4977754;28;20221;-51
2022/06/22 05:43:36;;;;;;;323.30;167.45;;;;;;;;;;4960219;28;20216;-51
2022/06/22 05:46:02;;;;;;;301.60;157.43;;;;;;;;;;4985485;28;20241;-51
2022/06/22 05:48:29;;;;;;;306.73;167.65;;;;;;;;;;4982320;28;20609;-51
2022/06/22 05:51:01;;;;;;;251.30;144.65;;;;;;;;;;4990833;28;20654;-51
2022/06/22 05:53:34;;;;;;;259.63;146.35;;;;;;;;;;4992907;28;20212;-51
2022/06/22 05:56:03;;;;;;;324.48;180.75;;;;;;;;;;4985468;28;20308;-52
2022/06/22 05:58:34;;;;;;;300.50;164.02;;;;;;;;;;4983080;28;21052;-51
2022/06/22 06:01:01;;;;;;;237.60;143.40;;;;;;;;;;4987966;28;20208;-52
2022/06/22 06:03:33;;;;;;;271.77;152.50;;;;;;;;;;4979739;28;20217;-52
2022/06/22 06:06:03;;;;;;;367.63;195.27;;;;;;;;;;4989686;28;20763;-52
2022/06/22 06:08:47;;;;;;;225.30;144.40;;;;;;;;;;4981070;28;20771;-51
2022/06/22 06:11:18;;;;;;;239.75;151.35;;;;;;;;;;4974403;28;20310;-52
2022/06/22 06:13:50;;;;;;;245.10;143.23;;;;;;;;;;4988732;28;20752;-51
2022/06/22 06:16:25;;;;;;;312.08;164.40;;;;;;;;;;4983981;28;20256;-49
2022/06/22 06:18:51;;;;;;;255.65;153.32;;;;;;;;;;4987038;28;21027;-49
2022/06/22 06:21:19;;;;;;;351.83;194.10;;;;;;;;;;4976357;28;20331;-48
2022/06/22 06:23:45;;;;;;;352.60;188.18;;;;;;;;;;4978610;28;20213;-48
2022/06/22 06:29:09;;;;;;;251.23;160.98;;;;;;;;;;4992137;28;20243;-48
2022/06/22 06:31:38;;;;;;;278.17;169.52;;;;;;;;;;4990063;28;20230;-49
2022/06/22 06:34:11;;;;;;;282.75;176.15;;;;;;;;;;4995150;28;20202;-48
2022/06/22 06:36:47;;;;;;;310.35;181.57;;;;;;;;;;4990344;28;20228;-48
2022/06/22 06:39:15;;;;;;;295.65;170.23;;;;;;;;;;4977292;28;20693;-48
2022/06/22 06:41:46;;;;;;;320.95;193.23;;;;;;;;;;4999972;28;20280;-49
2022/06/22 06:44:18;;;;;;;347.65;199.05;;;;;;;;;;4992680;28;20308;-48
2022/06/22 06:46:53;;;;;;;318.42;187.90;;;;;;;;;;4987944;28;20217;-48
2022/06/22 06:49:31;;;;;;;398.27;218.88;;;;;;;;;;4982993;28;20204;-48
2022/06/22 06:51:59;;;;;;;294.95;181.32;;;;;;;;;;4983640;28;20225;-52
2022/06/22 06:54:44;;;;;;;352.92;193.88;;;;;;;;;;4985471;28;20215;-52
2022/06/22 06:57:18;;;;;;;392.92;221.93;;;;;;;;;;4980367;28;20216;-52
2022/06/22 06:59:45;;;;;;;374.95;196.45;;;;;;;;;;4970067;28;20253;-52
2022/06/22 07:02:13;;;;;;;422.17;213.02;;;;;;;;;;4980607;28;20220;-52
2022/06/22 07:04:39;;;;;;;349.40;191.18;;;;;;;;;;4984657;28;20235;-52
2022/06/22 07:07:05;;;;;;;388.40;207.15;;;;;;;;;;4980479;28;20173;-52
2022/06/22 07:09:34;;;;;;;469.92;253.23;;;;;;;;;;4980037;28;20499;-52
2022/06/22 07:12:10;;;;;;;357.48;203.57;;;;;;;;;;4974144;28;20325;-52
2022/06/22 07:14:37;;;;;;;349.52;197.10;;;;;;;;;;4982571;28;20216;-52
2022/06/22 07:17:06;;;;;;;436.60;236.43;;;;;;;;;;4984281;28;20296;-50
2022/06/22 07:19:37;;;;;;;413.48;233.30;;;;;;;;;;4977962;28;20236;-51
2022/06/22 07:22:19;;;;;;;339.67;204.07;;;;;;;;;;4969097;28;20300;-52
2022/06/22 07:24:53;;;;;;;401.42;231.23;;;;;;;;;;4981829;28;20221;-50
2022/06/22 07:27:28;;;;;;;419.88;229.52;;;;;;;;;;4981339;28;20759;-52
2022/06/22 07:30:13;;;;;;;482.27;263.33;;;;;;;;;;4974180;28;20254;-52
2022/06/22 07:32:41;;;;;;;418.30;234.02;;;;;;;;;;4978850;28;20860;-52
2022/06/22 07:35:20;;;;;;;346.15;201.88;;;;;;;;;;4983504;28;20209;-52
2022/06/22 07:37:55;;;;;;;352.75;209.32;;;;;;;;;;4980043;28;20662;-52
2022/06/22 07:40:24;;;;;;;335.15;205.98;;;;;;;;;;4991144;28;20207;-52
2022/06/22 07:42:50;;;;;;;423.40;238.43;;;;;;;;;;4988948;28;20221;-52
2022/06/22 07:45:18;;;;;;;449.30;259.27;;;;;;;;;;4992923;28;20248;-52
2022/06/22 07:47:51;;;;;;;341.45;213.13;;;;;;;;;;4989694;28;20599;-52
2022/06/22 07:50:21;;;;;;;368.00;214.73;;;;;;;;;;4992741;28;20204;-52
2022/06/22 07:52:49;;;;;;;354.83;206.30;;;;;;;;;;4996163;28;20218;-52
2022/06/22 07:55:34;;;;;;;357.20;208.50;;;;;;;;;;4990621;28;20475;-52
2022/06/22 07:58:19;;;;;;;338.85;204.82;;;;;;;;;;4999574;28;20478;-52
2022/06/22 08:00:47;;;;;;;356.23;218.65;;;;;;;;;;4986292;28;20704;-53
2022/06/22 08:03:27;;;;;;;384.00;219.32;;;;;;;;;;4993063;28;20201;-52
2022/06/22 08:05:56;;;;;;;363.90;222.05;;;;;;;;;;4987086;28;20235;-52
2022/06/22 08:08:28;;;;;;;400.80;231.05;;;;;;;;;;4968205;28;20311;-52
2022/06/22 08:10:57;;;;;;;384.48;227.57;;;;;;;;;;4971965;28;20225;-52
2022/06/22 08:13:24;;;;;;;432.08;245.50;;;;;;;;;;4986006;28;20189;-52
2022/06/22 08:15:52;;;;;;;362.65;207.32;;;;;;;;;;4986161;28;20177;-52
2022/06/22 08:18:18;;;;;;;369.70;216.55;;;;;;;;;;4994396;28;20420;-52
2022/06/22 08:20:47;;;;;;;400.90;223.40;;;;;;;;;;4983346;28;20835;-53
2022/06/22 08:23:19;;;;;;;395.33;222.43;;;;;;;;;;4988597;28;20213;-52
2022/06/22 08:25:46;;;;;;;380.25;220.43;;;;;;;;;;4989634;28;20213;-52
2022/06/22 08:28:14;;;;;;;377.42;228.82;;;;;;;;;;4989285;28;20208;-52
2022/06/22 08:30:40;;;;;;;360.42;225.55;;;;;;;;;;4985978;28;20268;-53
2022/06/22 08:33:07;;;;;;;362.25;222.85;;;;;;;;;;4990619;28;20275;-52
2022/06/22 08:35:36;;;;;;;371.98;227.55;;;;;;;;;;4992211;28;20251;-52
2022/06/22 08:38:02;;;;;;;436.95;255.90;;;;;;;;;;4987714;28;20859;-53
2022/06/22 08:40:44;;;;;;;332.65;208.85;;;;;;;;;;4985681;28;20711;-52
2022/06/22 08:43:16;;;;;;;390.52;236.00;;;;;;;;;;4986017;28;20228;-52
2022/06/22 08:45:57;;;;;;;384.08;227.68;;;;;;;;;;4991070;28;20692;-52
2022/06/22 08:48:33;;;;;;;444.63;258.17;;;;;;;;;;4989102;28;20217;-52
2022/06/22 08:51:10;;;;;;;439.95;261.25;;;;;;;;;;4982611;28;20238;-52
2022/06/22 08:53:48;;;;;;;374.65;229.73;;;;;;;;;;4990506;28;20232;-52
2022/06/22 08:56:18;;;;;;;379.25;224.48;;;;;;;;;;4985141;28;20232;-53
2022/06/22 08:59:03;;;;;;;459.85;262.85;;;;;;;;;;4989314;28;20641;-52
2022/06/22 09:01:31;;;;;;;409.42;228.65;;;;;;;;;;4977540;28;20196;-53
2022/06/22 09:04:16;;;;;;;374.40;222.05;;;;;;;;;;4988972;28;20193;-52
2022/06/22 09:06:54;;;;;;;444.88;235.90;;;;;;;;;;4981355;28;20291;-53
2022/06/22 09:09:23;;;;;;;502.27;260.85;;;;;;;;;;4987317;28;20221;-53
2022/06/22 09:11:55;;;;;;;424.05;235.82;;;;;;;;;;4987634;28;20241;-52
2022/06/22 09:14:24;;;;;;;462.63;266.75;;;;;;;;;;4980168;28;20217;-53
2022/06/22 09:16:59;;;;;;;390.02;224.70;;;;;;;;;;4982572;28;20218;-53
2022/06/22 09:19:28;;;;;;;457.98;268.42;;;;;;;;;;4985511;28;20242;-52
2022/06/22 09:22:08;;;;;;;403.20;239.88;;;;;;;;;;4979134;28;20189;-52
2022/06/22 09:24:53;;;;;;;496.65;289.38;;;;;;;;;;4983347;28;20317;-53
2022/06/22 09:27:33;;;;;;;406.48;242.02;;;;;;;;;;4989599;28;20213;-53
2022/06/22 09:30:06;;;;;;;509.13;300.13;;;;;;;;;;4985489;28;20629;-53
2022/06/22 09:32:38;;;;;;;435.50;269.40;;;;;;;;;;4982778;28;20263;-53
2022/06/22 09:35:04;;;;;;;441.17;267.08;;;;;;;;;;4971943;28;20213;-53
2022/06/22 09:37:46;;;;;;;399.70;251.65;;;;;;;;;;4994362;28;20192;-52
2022/06/22 09:40:34;;;;;;;397.30;246.70;;;;;;;;;;4995647;28;20231;-53
2022/06/22 09:43:09;;;;;;;435.27;249.57;;;;;;;;;;4981737;28;20584;-53
2022/06/22 09:45:49;;;;;;;445.52;261.52;;;;;;;;;;4994784;28;20239;-53
2022/06/22 09:48:34;;;;;;;412.52;247.88;;;;;;;;;;5000235;28;20225;-52
2022/06/22 09:51:06;;;;;;;455.80;269.45;;;;;;;;;;4992496;28;20218;-52
2022/06/22 09:53:47;;;;;;;403.95;237.30;;;;;;;;;;4988251;28;20213;-53
2022/06/22 09:56:29;;;;;;;421.27;240.57;;;;;;;;;;4997031;28;20732;-53
2022/06/22 09:58:55;;;;;;;361.95;231.20;;;;;;;;;;4991565;28;20315;-53
2022/06/22 10:01:31;;;;;;;412.92;257.75;;;;;;;;;;4995011;28;20245;-53
2022/06/22 10:03:56;;;;;;;426.92;265.33;;;;;;;;;;4996942;28;20232;-53
2022/06/22 10:06:38;;;;;;;477.05;284.00;;;;;;;;;;4993921;28;20299;-53
2022/06/22 10:09:10;;;;;;;410.35;258.23;;;;;;;;;;5000241;28;20224;-53
2022/06/22 10:11:54;;;;;;;382.20;242.93;;;;;;;;;;4993938;28;20239;-53
2022/06/22 10:14:36;;;;;;;508.77;306.65;;;;;;;;;;4997386;28;20681;-53
2022/06/22 10:17:07;;;;;;;451.65;277.13;;;;;;;;;;4999066;28;20228;-53
2022/06/22 10:19:44;;;;;;;382.48;250.93;;;;;;;;;;4991218;28;20578;-53
2022/06/22 10:22:27;;;;;;;386.38;251.82;;;;;;;;;;4994340;28;20538;-53
2022/06/22 10:25:11;;;;;;;383.65;246.70;;;;;;;;;;4994399;28;20834;-53
2022/06/22 10:27:40;;;;;;;414.50;254.80;;;;;;;;;;4991404;28;20213;-53
2022/06/22 10:30:38;;;;;;;419.73;255.45;;;;;;;;;;4993344;28;20212;-53
2022/06/22 10:33:27;;;;;;;398.35;245.43;;;;;;;;;;4947389;28;20432;-53
2022/06/22 10:35:57;;;;;;;423.10;253.20;;;;;;;;;;4994781;28;20432;-53
2022/06/22 10:38:29;;;;;;;384.92;240.50;;;;;;;;;;4997310;28;20240;-53
2022/06/22 10:47:00;;;;;;;409.35;255.70;;;;;;;;;;4991311;28;20228;-54
2022/06/22 10:49:35;;;;;;;401.40;254.45;;;;;;;;;;4996756;28;20692;-53
2022/06/22 10:52:05;;;;;;;383.25;254.85;;;;;;;;;;4996078;28;20237;-53
2022/06/22 10:54:34;;;;;;;430.60;272.52;;;;;;;;;;4989689;28;20213;-53
2022/06/22 10:57:05;;;;;;;430.15;277.73;;;;;;;;;;4993369;28;20221;-53
2022/06/22 10:59:31;;;;;;;414.73;268.15;;;;;;;;;;4994554;28;20304;-53
2022/06/22 11:02:24;;;;;;;397.33;257.35;;;;;;;;;;4995090;28;20781;-53
2022/06/22 11:05:00;;;;;;;489.45;309.42;;;;;;;;;;4992914;28;20220;-53
2022/06/22 11:07:32;;;;;;;423.45;272.48;;;;;;;;;;4994367;28;20192;-53
2022/06/22 11:10:20;;;;;;;432.83;274.25;;;;;;;;;;4995273;28;20205;-53
2022/06/22 11:12:54;;;;;;;443.40;288.40;;;;;;;;;;4990806;28;20216;-53
2022/06/22 11:15:26;;;;;;;421.25;279.45;;;;;;;;;;4993765;28;20593;-53
2022/06/22 11:18:11;;;;;;;415.58;277.00;;;;;;;;;;4989971;28;20479;-53
2022/06/22 11:20:40;;;;;;;423.45;279.67;;;;;;;;;;4994800;28;20209;-53
2022/06/22 11:23:10;;;;;;;450.63;288.48;;;;;;;;;;4996830;28;20224;-53
2022/06/22 11:31:24;;;;;;;416.55;282.85;;;;;;;;;;4990421;28;20629;-53
2022/06/22 11:33:55;;;;;;;444.17;296.02;;;;;;;;;;4993978;28;20714;-53
2022/06/22 11:36:39;;;;;;;421.67;278.63;;;;;;;;;;4991271;28;20696;-53
2022/06/22 11:39:20;;;;;;;402.63;272.95;;;;;;;;;;4992081;28;20278;-53
2022/06/22 11:41:46;;;;;;;413.08;277.77;;;;;;;;;;4991104;28;20209;-52
2022/06/22 11:44:42;;;;;;;421.92;291.27;;;;;;;;;;4996662;28;20233;-53
2022/06/22 11:47:21;;;;;;;428.65;283.10;;;;;;;;;;4938153;28;20301;-53
2022/06/22 11:50:02;;;;;;;420.17;268.85;;;;;;;;;;4991046;28;20224;-53
2022/06/22 11:52:40;;;;;;;397.42;260.85;;;;;;;;;;4996201;28;20191;-53
2022/06/22 11:55:09;;;;;;;410.80;266.67;;;;;;;;;;4993564;28;20742;-53
2022/06/22 11:57:38;;;;;;;403.15;267.35;;;;;;;;;;4995839;28;20209;-53
2022/06/22 12:00:18;;;;;;;421.75;276.52;;;;;;;;;;4993450;28;20320;-53
2022/06/22 12:03:20;;;;;;;406.98;268.83;;;;;;;;;;4990193;28;20287;-53
2022/06/22 12:05:46;;;;;;;402.38;268.05;;;;;;;;;;4905060;29;20360;-53
2022/06/22 12:08:17;;;;;;;409.27;271.35;;;;;;;;;;4970401;28;20316;-53
2022/06/22 12:10:47;;;;;;;423.90;295.65;;;;;;;;;;4997762;28;20236;-53
2022/06/22 12:13:30;;;;;;;424.05;296.95;;;;;;;;;;4993237;28;20353;-53
2022/06/22 12:15:59;;;;;;;517.50;344.15;;;;;;;;;;4985842;28;20228;-53
2022/06/22 12:18:31;;;;;;;443.55;308.88;;;;;;;;;;4982126;28;20228;-53
2022/06/22 12:21:03;;;;;;;469.33;323.00;;;;;;;;;;4987582;28;20598;-53
2022/06/22 12:23:33;;;;;;;500.05;326.02;;;;;;;;;;4961688;28;20590;-53
2022/06/22 12:26:08;;;;;;;476.33;328.58;;;;;;;;;;4973563;28;20236;-53
2022/06/22 12:28:47;;;;;;;405.50;294.58;;;;;;;;;;4961525;28;20212;-53
2022/06/22 12:31:17;;;;;;;607.97;388.05;;;;;;;;;;4962105;28;20207;-53
2022/06/22 12:33:55;;;;;;;485.02;324.50;;;;;;;;;;4979132;28;20216;-53
2022/06/22 12:36:25;;;;;;;514.00;332.27;;;;;;;;;;4969957;28;20512;-53
2022/06/22 12:38:53;;;;;;;421.48;295.08;;;;;;;;;;4983546;28;20460;-53
2022/06/22 12:41:38;;;;;;;475.10;322.52;;;;;;;;;;4981804;28;20217;-53
2022/06/22 12:44:29;;;;;;;467.50;325.88;;;;;;;;;;4984788;28;20221;-53
2022/06/22 12:47:08;;;;;;;455.15;321.88;;;;;;;;;;4982212;28;20242;-53
2022/06/22 12:49:41;;;;;;;477.88;336.58;;;;;;;;;;4983636;28;20284;-52
2022/06/22 12:52:24;;;;;;;581.10;391.40;;;;;;;;;;4975688;28;20189;-53
2022/06/22 12:54:58;;;;;;;423.85;307.75;;;;;;;;;;4983304;28;20216;-52
2022/06/22 12:57:28;;;;;;;528.97;346.50;;;;;;;;;;4979870;28;20228;-52
2022/06/22 13:00:10;;;;;;;388.13;298.88;;;;;;;;;;4975450;28;20470;-52
2022/06/22 13:02:39;;;;;;;437.33;322.33;;;;;;;;;;4981563;28;20209;-52
2022/06/22 13:05:08;;;;;;;475.45;331.52;;;;;;;;;;4976659;28;20224;-52
2022/06/22 13:07:38;;;;;;;428.85;317.50;;;;;;;;;;4979325;28;20186;-53
2022/06/22 13:10:04;;;;;;;552.90;358.30;;;;;;;;;;4979404;28;20202;-53
2022/06/22 13:12:30;;;;;;;524.80;349.83;;;;;;;;;;4966436;28;20344;-53
2022/06/22 13:15:00;;;;;;;538.50;353.30;;;;;;;;;;4971252;28;20216;-53
2022/06/22 13:17:35;;;;;;;619.90;380.65;;;;;;;;;;4971248;28;20229;-53
2022/06/22 13:20:07;;;;;;;411.75;312.60;;;;;;;;;;4979553;28;20240;-52
2022/06/22 13:22:48;;;;;;;580.90;368.40;;;;;;;;;;4977263;28;20178;-52
2022/06/22 13:25:32;;;;;;;564.88;389.45;;;;;;;;;;4982359;28;20209;-53
2022/06/22 13:28:00;;;;;;;456.48;342.63;;;;;;;;;;4982600;28;25070;-52
2022/06/22 13:30:37;;;;;;;429.30;330.40;;;;;;;;;;4983413;28;20217;-53
2022/06/22 13:33:14;;;;;;;465.67;347.30;;;;;;;;;;4974796;28;20216;-53
2022/06/22 13:35:43;;;;;;;440.50;346.50;;;;;;;;;;4976103;28;20224;-53
2022/06/22 13:38:16;;;;;;;485.10;359.58;;;;;;;;;;4982096;28;20224;-53
2022/06/22 13:41:00;;;;;;;542.42;388.23;;;;;;;;;;4972032;28;20461;-53
2022/06/22 13:43:34;;;;;;;535.63;382.42;;;;;;;;;;4972277;28;20874;-52
2022/06/22 13:46:03;;;;;;;493.80;372.80;;;;;;;;;;4971225;28;20209;-53
2022/06/22 13:48:29;;;;;;;489.80;373.10;;;;;;;;;;4956075;28;20705;-51
2022/06/22 13:51:19;;;;;;;448.50;369.13;;;;;;;;;;4979142;28;20248;-52
2022/06/22 13:53:53;;;;;;;476.48;378.23;;;;;;;;;;4986984;28;20301;-52
2022/06/22 13:56:22;;;;;;;485.77;389.70;;;;;;;;;;4979034;28;20452;-53
2022/06/22 13:58:50;;;;;;;465.13;379.42;;;;;;;;;;4978923;28;20217;-52
2022/06/22 14:01:22;;;;;;;465.90;365.75;;;;;;;;;;4990516;28;20195;-51
2022/06/22 14:03:51;;;;;;;419.17;351.02;;;;;;;;;;4989348;28;20218;-52
2022/06/22 14:06:19;;;;;;;484.83;367.63;;;;;;;;;;4986983;28;21045;-53
2022/06/22 14:08:57;;;;;;;474.38;379.88;;;;;;;;;;4988592;28;20219;-52
2022/06/22 14:11:28;;;;;;;470.90;368.35;;;;;;;;;;4984003;28;20220;-51
2022/06/22 14:13:59;;;;;;;578.28;409.35;;;;;;;;;;4977673;28;20290;-53
2022/06/22 14:16:30;;;;;;;672.33;443.80;;;;;;;;;;4980150;28;20213;-52
2022/06/22 14:18:56;;;;;;;501.52;406.95;;;;;;;;;;4979793;28;20933;-52
2022/06/22 14:21:41;;;;;;;503.67;399.67;;;;;;;;;;4974273;28;20224;-52
2022/06/22 14:24:22;;;;;;;432.80;369.45;;;;;;;;;;4986319;28;20219;-52
2022/06/22 14:27:11;;;;;;;499.95;413.50;;;;;;;;;;4979240;28;20225;-52
2022/06/22 14:29:51;;;;;;;470.60;409.63;;;;;;;;;;4948200;28;20655;-53
2022/06/22 14:32:20;;;;;;;465.85;407.90;;;;;;;;;;4985568;28;20373;-52
2022/06/22 14:34:58;;;;;;;480.95;425.52;;;;;;;;;;4987113;28;20574;-52
2022/06/22 14:37:30;;;;;;;539.75;460.20;;;;;;;;;;4988846;28;20193;-52
2022/06/22 14:40:05;;;;;;;465.92;417.90;;;;;;;;;;4991479;28;20291;-52
2022/06/22 14:42:34;;;;;;;509.48;453.75;;;;;;;;;;4980382;28;22502;-53
2022/06/22 14:45:12;;;;;;;527.25;471.35;;;;;;;;;;4984860;28;20291;-53
2022/06/22 14:47:40;;;;;;;489.05;440.85;;;;;;;;;;4981794;28;20251;-53